Weather at Lionel P. Demers Memorial Airpark

Public forecast

Using degrees Celsius for public forecast. Weather courtesy of forecast.io.

Closest aviation weather report (METAR) to Lionel P. Demers Memorial Airpark

Closest report is Cranbrook/Canadian Rockies International Airport, 31.2 nm (57.9 km) NW.

2024/07/19 20:00 (retrieved 49 minutes ago)

CYXC 192000Z 08008KT 070V180 20SM SCT080CB BKN160 34/10 A3012 RMK CB3AC2 FU CB N SLP170 DENSITY ALT 5800FT

Closest aviation forecast (TAF) to Lionel P. Demers Memorial Airpark

Closest forecast is Cranbrook/Canadian Rockies International Airport, 31.2 nm (57.9 km) NW.

2024/07/19 19:42 (retrieved 1 hour ago)

TAF CYXC 191840Z 1919/2007 VRB03KT P6SM FEW100 PROB30 1921/2002 VRB15G25KT 4SM TSRA BKN080CB FM200400 27005KT P6SM SCT100 RMK NXT FCST BY 200100Z